sensor_id;sensor_type;location;lat;lon;timestamp;temperature;humidity
23301;DHT22;11819;51.394;12.340;2023-02-28T00:01:28;3.20;77.90
23301;DHT22;11819;51.394;12.340;2023-02-28T00:03:54;3.20;77.70
23301;DHT22;11819;51.394;12.340;2023-02-28T00:06:20;3.10;77.80
23301;DHT22;11819;51.394;12.340;2023-02-28T00:08:46;3.20;77.90
23301;DHT22;11819;51.394;12.340;2023-02-28T00:11:14;3.20;78.10
23301;DHT22;11819;51.394;12.340;2023-02-28T00:13:43;3.10;78.40
23301;DHT22;11819;51.394;12.340;2023-02-28T00:16:17;3.10;78.60
23301;DHT22;11819;51.394;12.340;2023-02-28T00:18:44;3.10;78.70
23301;DHT22;11819;51.394;12.340;2023-02-28T00:21:10;3.20;78.70
23301;DHT22;11819;51.394;12.340;2023-02-28T00:23:37;3.10;78.80
23301;DHT22;11819;51.394;12.340;2023-02-28T00:26:04;3.10;78.70
23301;DHT22;11819;51.394;12.340;2023-02-28T00:28:31;3.10;78.80
23301;DHT22;11819;51.394;12.340;2023-02-28T00:30:58;3.10;79.00
23301;DHT22;11819;51.394;12.340;2023-02-28T00:33:26;3.10;79.20
23301;DHT22;11819;51.394;12.340;2023-02-28T00:36:11;3.10;79.30
23301;DHT22;11819;51.394;12.340;2023-02-28T00:38:38;3.10;79.40
23301;DHT22;11819;51.394;12.340;2023-02-28T00:41:05;3.10;79.30
23301;DHT22;11819;51.394;12.340;2023-02-28T00:43:32;3.10;79.20
23301;DHT22;11819;51.394;12.340;2023-02-28T00:45:58;3.10;79.30
23301;DHT22;11819;51.394;12.340;2023-02-28T00:48:24;3.10;79.50
23301;DHT22;11819;51.394;12.340;2023-02-28T00:50:49;3.10;79.50
23301;DHT22;11819;51.394;12.340;2023-02-28T00:53:15;3.10;79.60
23301;DHT22;11819;51.394;12.340;2023-02-28T00:55:41;3.10;79.70
23301;DHT22;11819;51.394;12.340;2023-02-28T00:58:06;3.00;79.60
23301;DHT22;11819;51.394;12.340;2023-02-28T01:00:33;3.10;79.80
23301;DHT22;11819;51.394;12.340;2023-02-28T01:02:59;3.00;79.60
23301;DHT22;11819;51.394;12.340;2023-02-28T01:05:26;3.00;79.70
23301;DHT22;11819;51.394;12.340;2023-02-28T01:07:52;3.00;79.80
23301;DHT22;11819;51.394;12.340;2023-02-28T01:10:18;3.00;80.00
23301;DHT22;11819;51.394;12.340;2023-02-28T01:12:44;3.00;80.00
23301;DHT22;11819;51.394;12.340;2023-02-28T01:15:10;3.00;80.10
23301;DHT22;11819;51.394;12.340;2023-02-28T01:17:37;3.00;80.10
23301;DHT22;11819;51.394;12.340;2023-02-28T01:20:03;3.00;80.20
23301;DHT22;11819;51.394;12.340;2023-02-28T01:22:29;3.00;80.30
23301;DHT22;11819;51.394;12.340;2023-02-28T01:24:55;3.00;80.40
23301;DHT22;11819;51.394;12.340;2023-02-28T01:27:21;3.00;80.30
23301;DHT22;11819;51.394;12.340;2023-02-28T01:29:47;3.00;80.40
23301;DHT22;11819;51.394;12.340;2023-02-28T01:32:16;3.00;80.50
23301;DHT22;11819;51.394;12.340;2023-02-28T01:34:42;3.00;80.50
23301;DHT22;11819;51.394;12.340;2023-02-28T01:37:08;3.00;80.60
23301;DHT22;11819;51.394;12.340;2023-02-28T01:39:36;3.00;80.40
23301;DHT22;11819;51.394;12.340;2023-02-28T01:42:02;3.00;80.40
23301;DHT22;11819;51.394;12.340;2023-02-28T01:44:58;3.00;80.50
23301;DHT22;11819;51.394;12.340;2023-02-28T01:47:32;2.90;80.60
23301;DHT22;11819;51.394;12.340;2023-02-28T01:49:59;2.90;80.80
23301;DHT22;11819;51.394;12.340;2023-02-28T01:52:26;2.90;81.00
23301;DHT22;11819;51.394;12.340;2023-02-28T01:54:56;2.90;81.10
23301;DHT22;11819;51.394;12.340;2023-02-28T01:57:34;2.90;81.20
23301;DHT22;11819;51.394;12.340;2023-02-28T02:00:09;2.90;81.20
23301;DHT22;11819;51.394;12.340;2023-02-28T02:02:44;2.90;81.20
23301;DHT22;11819;51.394;12.340;2023-02-28T02:05:15;3.00;81.20
23301;DHT22;11819;51.394;12.340;2023-02-28T02:07:44;2.90;81.10
23301;DHT22;11819;51.394;12.340;2023-02-28T02:10:31;2.90;81.20
23301;DHT22;11819;51.394;12.340;2023-02-28T02:16:01;2.90;81.30
23301;DHT22;11819;51.394;12.340;2023-02-28T02:35:31;2.90;81.70
23301;DHT22;11819;51.394;12.340;2023-02-28T02:38:11;2.90;81.60
23301;DHT22;11819;51.394;12.340;2023-02-28T02:41:46;2.90;81.60
23301;DHT22;11819;51.394;12.340;2023-02-28T02:43:49;2.80;81.70
23301;DHT22;11819;51.394;12.340;2023-02-28T02:46:29;2.80;81.60
23301;DHT22;11819;51.394;12.340;2023-02-28T02:49:00;2.90;81.60
23301;DHT22;11819;51.394;12.340;2023-02-28T02:51:30;2.80;81.60
23301;DHT22;11819;51.394;12.340;2023-02-28T02:54:22;2.80;81.50
23301;DHT22;11819;51.394;12.340;2023-02-28T02:56:49;2.80;81.40
23301;DHT22;11819;51.394;12.340;2023-02-28T02:59:21;2.80;81.30
23301;DHT22;11819;51.394;12.340;2023-02-28T03:01:57;2.80;81.30
23301;DHT22;11819;51.394;12.340;2023-02-28T03:04:30;2.80;81.20
23301;DHT22;11819;51.394;12.340;2023-02-28T03:06:58;2.80;81.10
23301;DHT22;11819;51.394;12.340;2023-02-28T03:09:25;2.70;80.90
23301;DHT22;11819;51.394;12.340;2023-02-28T03:11:52;2.70;80.90
23301;DHT22;11819;51.394;12.340;2023-02-28T03:14:45;2.60;81.10
23301;DHT22;11819;51.394;12.340;2023-02-28T03:20:05;2.50;81.20
23301;DHT22;11819;51.394;12.340;2023-02-28T03:22:52;2.50;81.30
23301;DHT22;11819;51.394;12.340;2023-02-28T03:28:17;2.40;81.60
23301;DHT22;11819;51.394;12.340;2023-02-28T03:33:24;2.40;81.50
23301;DHT22;11819;51.394;12.340;2023-02-28T03:36:08;2.30;81.50
23301;DHT22;11819;51.394;12.340;2023-02-28T03:38:40;2.30;81.50
23301;DHT22;11819;51.394;12.340;2023-02-28T03:41:21;2.30;81.60
23301;DHT22;11819;51.394;12.340;2023-02-28T03:43:56;2.20;81.70
23301;DHT22;11819;51.394;12.340;2023-02-28T03:46:26;2.20;82.00
23301;DHT22;11819;51.394;12.340;2023-02-28T03:49:03;2.20;81.80
23301;DHT22;11819;51.394;12.340;2023-02-28T03:51:32;2.10;81.90
23301;DHT22;11819;51.394;12.340;2023-02-28T03:54:05;2.10;82.10
23301;DHT22;11819;51.394;12.340;2023-02-28T03:56:54;2.10;82.20
23301;DHT22;11819;51.394;12.340;2023-02-28T03:59:40;2.10;82.10
23301;DHT22;11819;51.394;12.340;2023-02-28T04:02:10;2.10;82.20
23301;DHT22;11819;51.394;12.340;2023-02-28T04:04:37;2.00;82.30
23301;DHT22;11819;51.394;12.340;2023-02-28T04:07:06;2.00;82.40
23301;DHT22;11819;51.394;12.340;2023-02-28T04:09:32;1.90;82.40
23301;DHT22;11819;51.394;12.340;2023-02-28T04:11:57;1.90;82.70
23301;DHT22;11819;51.394;12.340;2023-02-28T04:14:23;1.80;83.10
23301;DHT22;11819;51.394;12.340;2023-02-28T04:16:49;1.80;83.30
23301;DHT22;11819;51.394;12.340;2023-02-28T04:19:16;1.80;83.70
23301;DHT22;11819;51.394;12.340;2023-02-28T04:21:51;1.90;83.80
23301;DHT22;11819;51.394;12.340;2023-02-28T04:24:19;1.90;83.70
23301;DHT22;11819;51.394;12.340;2023-02-28T04:26:49;2.00;83.60
23301;DHT22;11819;51.394;12.340;2023-02-28T04:29:27;2.00;83.50
23301;DHT22;11819;51.394;12.340;2023-02-28T04:31:53;2.10;83.30
23301;DHT22;11819;51.394;12.340;2023-02-28T04:34:20;2.10;83.20
23301;DHT22;11819;51.394;12.340;2023-02-28T04:36:47;2.10;82.90
23301;DHT22;11819;51.394;12.340;2023-02-28T04:39:15;2.10;82.80
23301;DHT22;11819;51.394;12.340;2023-02-28T04:41:40;2.10;82.70
23301;DHT22;11819;51.394;12.340;2023-02-28T04:44:06;2.10;82.60
23301;DHT22;11819;51.394;12.340;2023-02-28T04:46:32;2.20;82.80
23301;DHT22;11819;51.394;12.340;2023-02-28T04:48:57;2.20;82.80
23301;DHT22;11819;51.394;12.340;2023-02-28T04:51:23;2.20;82.60
23301;DHT22;11819;51.394;12.340;2023-02-28T04:53:49;2.20;82.40
23301;DHT22;11819;51.394;12.340;2023-02-28T04:56:18;2.20;82.40
23301;DHT22;11819;51.394;12.340;2023-02-28T04:58:44;2.20;82.40
23301;DHT22;11819;51.394;12.340;2023-02-28T05:01:25;2.20;82.30
23301;DHT22;11819;51.394;12.340;2023-02-28T05:03:52;2.20;82.20
23301;DHT22;11819;51.394;12.340;2023-02-28T05:06:19;2.20;82.00
23301;DHT22;11819;51.394;12.340;2023-02-28T05:08:46;2.20;81.70
23301;DHT22;11819;51.394;12.340;2023-02-28T05:11:19;2.20;81.70
23301;DHT22;11819;51.394;12.340;2023-02-28T05:13:46;2.20;81.70
23301;DHT22;11819;51.394;12.340;2023-02-28T05:16:11;2.20;81.60
23301;DHT22;11819;51.394;12.340;2023-02-28T05:18:38;2.20;81.60
23301;DHT22;11819;51.394;12.340;2023-02-28T05:21:06;2.10;81.70
23301;DHT22;11819;51.394;12.340;2023-02-28T05:23:37;2.10;81.70
23301;DHT22;11819;51.394;12.340;2023-02-28T05:26:03;2.10;81.70
23301;DHT22;11819;51.394;12.340;2023-02-28T05:28:28;2.10;82.50
23301;DHT22;11819;51.394;12.340;2023-02-28T05:30:55;2.10;81.60
23301;DHT22;11819;51.394;12.340;2023-02-28T05:33:21;2.00;81.70
23301;DHT22;11819;51.394;12.340;2023-02-28T05:35:46;2.00;81.70
23301;DHT22;11819;51.394;12.340;2023-02-28T05:38:12;2.00;81.80
23301;DHT22;11819;51.394;12.340;2023-02-28T05:40:38;2.00;81.70
23301;DHT22;11819;51.394;12.340;2023-02-28T05:43:09;1.90;81.70
23301;DHT22;11819;51.394;12.340;2023-02-28T05:45:35;1.90;81.70
23301;DHT22;11819;51.394;12.340;2023-02-28T05:48:01;1.90;81.70
23301;DHT22;11819;51.394;12.340;2023-02-28T05:50:27;1.90;81.60
23301;DHT22;11819;51.394;12.340;2023-02-28T05:52:52;1.90;81.60
23301;DHT22;11819;51.394;12.340;2023-02-28T05:55:18;1.90;81.50
23301;DHT22;11819;51.394;12.340;2023-02-28T05:57:43;1.90;81.50
23301;DHT22;11819;51.394;12.340;2023-02-28T06:00:10;1.90;81.40
23301;DHT22;11819;51.394;12.340;2023-02-28T06:02:39;1.90;81.40
23301;DHT22;11819;51.394;12.340;2023-02-28T06:05:09;1.90;81.30
23301;DHT22;11819;51.394;12.340;2023-02-28T06:07:39;1.80;81.20
23301;DHT22;11819;51.394;12.340;2023-02-28T06:10:05;1.80;81.30
23301;DHT22;11819;51.394;12.340;2023-02-28T06:12:32;1.80;81.30
23301;DHT22;11819;51.394;12.340;2023-02-28T06:14:58;1.80;81.20
23301;DHT22;11819;51.394;12.340;2023-02-28T06:17:24;1.80;81.00
23301;DHT22;11819;51.394;12.340;2023-02-28T06:19:50;1.90;81.10
23301;DHT22;11819;51.394;12.340;2023-02-28T06:22:15;1.90;81.10
23301;DHT22;11819;51.394;12.340;2023-02-28T06:24:41;1.90;81.00
23301;DHT22;11819;51.394;12.340;2023-02-28T06:27:08;1.90;81.00
23301;DHT22;11819;51.394;12.340;2023-02-28T06:29:34;1.90;81.00
23301;DHT22;11819;51.394;12.340;2023-02-28T06:32:00;1.90;81.00
23301;DHT22;11819;51.394;12.340;2023-02-28T06:34:26;1.90;80.90
23301;DHT22;11819;51.394;12.340;2023-02-28T06:36:52;1.90;81.00
23301;DHT22;11819;51.394;12.340;2023-02-28T06:39:18;1.90;81.20
23301;DHT22;11819;51.394;12.340;2023-02-28T06:41:44;1.90;81.20
23301;DHT22;11819;51.394;12.340;2023-02-28T06:44:16;1.90;81.00
23301;DHT22;11819;51.394;12.340;2023-02-28T06:46:42;1.90;81.00
23301;DHT22;11819;51.394;12.340;2023-02-28T06:49:08;1.90;80.90
23301;DHT22;11819;51.394;12.340;2023-02-28T06:51:35;1.90;80.90
23301;DHT22;11819;51.394;12.340;2023-02-28T06:54:03;2.00;80.80
23301;DHT22;11819;51.394;12.340;2023-02-28T06:56:29;2.00;80.60
23301;DHT22;11819;51.394;12.340;2023-02-28T06:58:57;2.10;80.40
23301;DHT22;11819;51.394;12.340;2023-02-28T07:01:23;2.10;80.30
23301;DHT22;11819;51.394;12.340;2023-02-28T07:03:49;2.10;80.20
23301;DHT22;11819;51.394;12.340;2023-02-28T07:06:19;2.10;80.20
23301;DHT22;11819;51.394;12.340;2023-02-28T07:08:45;2.10;80.20
23301;DHT22;11819;51.394;12.340;2023-02-28T07:11:12;2.10;80.20
23301;DHT22;11819;51.394;12.340;2023-02-28T07:13:38;2.10;81.00
23301;DHT22;11819;51.394;12.340;2023-02-28T07:16:06;2.10;80.10
23301;DHT22;11819;51.394;12.340;2023-02-28T07:18:35;2.20;79.90
23301;DHT22;11819;51.394;12.340;2023-02-28T07:21:05;2.20;79.90
23301;DHT22;11819;51.394;12.340;2023-02-28T07:23:31;2.30;79.80
23301;DHT22;11819;51.394;12.340;2023-02-28T07:25:57;2.30;79.80
23301;DHT22;11819;51.394;12.340;2023-02-28T07:28:22;2.30;79.70
23301;DHT22;11819;51.394;12.340;2023-02-28T07:30:48;2.30;79.80
23301;DHT22;11819;51.394;12.340;2023-02-28T07:33:14;2.40;79.70
23301;DHT22;11819;51.394;12.340;2023-02-28T07:35:40;2.40;79.40
23301;DHT22;11819;51.394;12.340;2023-02-28T07:38:06;2.50;79.30
23301;DHT22;11819;51.394;12.340;2023-02-28T07:40:34;2.60;79.20
23301;DHT22;11819;51.394;12.340;2023-02-28T07:43:00;2.60;80.00
23301;DHT22;11819;51.394;12.340;2023-02-28T07:45:26;2.60;79.20
23301;DHT22;11819;51.394;12.340;2023-02-28T07:47:52;2.70;79.00
23301;DHT22;11819;51.394;12.340;2023-02-28T07:50:18;2.80;78.80
23301;DHT22;11819;51.394;12.340;2023-02-28T07:52:44;2.80;79.50
23301;DHT22;11819;51.394;12.340;2023-02-28T07:55:10;2.80;78.60
23301;DHT22;11819;51.394;12.340;2023-02-28T07:57:36;2.80;78.50
23301;DHT22;11819;51.394;12.340;2023-02-28T08:00:07;2.90;78.40
23301;DHT22;11819;51.394;12.340;2023-02-28T08:02:37;2.90;78.00
23301;DHT22;11819;51.394;12.340;2023-02-28T08:05:04;3.00;77.90
23301;DHT22;11819;51.394;12.340;2023-02-28T08:07:30;3.00;77.70
23301;DHT22;11819;51.394;12.340;2023-02-28T08:09:59;3.10;77.40
23301;DHT22;11819;51.394;12.340;2023-02-28T08:12:25;3.10;76.80
23301;DHT22;11819;51.394;12.340;2023-02-28T08:14:51;3.20;76.10
23301;DHT22;11819;51.394;12.340;2023-02-28T08:17:16;3.20;75.60
23301;DHT22;11819;51.394;12.340;2023-02-28T08:19:44;3.20;75.10
23301;DHT22;11819;51.394;12.340;2023-02-28T08:22:10;3.20;74.50
23301;DHT22;11819;51.394;12.340;2023-02-28T08:24:37;3.30;74.00
23301;DHT22;11819;51.394;12.340;2023-02-28T08:27:03;3.30;73.40
23301;DHT22;11819;51.394;12.340;2023-02-28T08:29:28;3.40;72.80
23301;DHT22;11819;51.394;12.340;2023-02-28T08:31:55;3.40;72.10
23301;DHT22;11819;51.394;12.340;2023-02-28T08:34:21;3.40;71.30
23301;DHT22;11819;51.394;12.340;2023-02-28T08:36:47;3.50;71.10
23301;DHT22;11819;51.394;12.340;2023-02-28T08:39:13;3.50;70.40
23301;DHT22;11819;51.394;12.340;2023-02-28T08:41:39;3.50;69.50
23301;DHT22;11819;51.394;12.340;2023-02-28T08:44:06;3.60;68.60
23301;DHT22;11819;51.394;12.340;2023-02-28T08:46:31;3.50;68.50
23301;DHT22;11819;51.394;12.340;2023-02-28T08:48:57;3.60;68.40
23301;DHT22;11819;51.394;12.340;2023-02-28T08:51:26;3.60;67.80
23301;DHT22;11819;51.394;12.340;2023-02-28T08:53:58;3.60;67.40
23301;DHT22;11819;51.394;12.340;2023-02-28T08:56:27;3.60;67.30
23301;DHT22;11819;51.394;12.340;2023-02-28T08:58:54;3.50;67.30
23301;DHT22;11819;51.394;12.340;2023-02-28T09:01:27;3.60;67.10
23301;DHT22;11819;51.394;12.340;2023-02-28T09:03:54;3.60;66.50
23301;DHT22;11819;51.394;12.340;2023-02-28T09:06:22;3.60;66.90
23301;DHT22;11819;51.394;12.340;2023-02-28T09:08:49;3.60;67.00
23301;DHT22;11819;51.394;12.340;2023-02-28T09:11:15;3.70;66.90
23301;DHT22;11819;51.394;12.340;2023-02-28T09:13:42;3.70;66.80
23301;DHT22;11819;51.394;12.340;2023-02-28T09:16:10;3.70;66.60
23301;DHT22;11819;51.394;12.340;2023-02-28T09:18:37;3.70;66.30
23301;DHT22;11819;51.394;12.340;2023-02-28T09:21:05;3.70;66.10
23301;DHT22;11819;51.394;12.340;2023-02-28T09:23:31;3.70;65.80
23301;DHT22;11819;51.394;12.340;2023-02-28T09:25:57;3.70;65.60
23301;DHT22;11819;51.394;12.340;2023-02-28T09:28:23;3.70;65.70
23301;DHT22;11819;51.394;12.340;2023-02-28T09:30:53;3.70;65.90
23301;DHT22;11819;51.394;12.340;2023-02-28T09:33:22;3.80;65.90
23301;DHT22;11819;51.394;12.340;2023-02-28T09:35:58;3.80;65.70
23301;DHT22;11819;51.394;12.340;2023-02-28T09:38:24;3.90;65.20
23301;DHT22;11819;51.394;12.340;2023-02-28T09:40:53;4.00;64.80
23301;DHT22;11819;51.394;12.340;2023-02-28T09:43:22;4.00;64.70
23301;DHT22;11819;51.394;12.340;2023-02-28T09:45:52;4.10;64.70
23301;DHT22;11819;51.394;12.340;2023-02-28T09:48:27;4.20;63.70
23301;DHT22;11819;51.394;12.340;2023-02-28T09:51:00;4.10;61.60
23301;DHT22;11819;51.394;12.340;2023-02-28T09:53:36;4.10;61.20
23301;DHT22;11819;51.394;12.340;2023-02-28T09:56:18;4.00;61.80
23301;DHT22;11819;51.394;12.340;2023-02-28T09:59:10;4.00;61.00
23301;DHT22;11819;51.394;12.340;2023-02-28T10:02:20;3.90;60.90
23301;DHT22;11819;51.394;12.340;2023-02-28T10:04:54;3.90;61.40
23301;DHT22;11819;51.394;12.340;2023-02-28T10:07:37;3.90;61.80
23301;DHT22;11819;51.394;12.340;2023-02-28T10:13:00;4.00;62.10
23301;DHT22;11819;51.394;12.340;2023-02-28T10:15:30;4.00;62.10
23301;DHT22;11819;51.394;12.340;2023-02-28T10:18:00;4.10;62.10
23301;DHT22;11819;51.394;12.340;2023-02-28T10:20:29;4.10;61.90
23301;DHT22;11819;51.394;12.340;2023-02-28T10:23:04;4.10;61.90
23301;DHT22;11819;51.394;12.340;2023-02-28T10:25:34;4.10;61.60
23301;DHT22;11819;51.394;12.340;2023-02-28T10:30:36;4.10;61.70
23301;DHT22;11819;51.394;12.340;2023-02-28T10:33:03;4.20;61.60
23301;DHT22;11819;51.394;12.340;2023-02-28T10:35:28;4.20;61.60
23301;DHT22;11819;51.394;12.340;2023-02-28T10:37:59;4.20;61.70
23301;DHT22;11819;51.394;12.340;2023-02-28T10:40:33;4.20;61.40
23301;DHT22;11819;51.394;12.340;2023-02-28T10:45:52;4.20;59.70
23301;DHT22;11819;51.394;12.340;2023-02-28T10:53:24;4.10;60.60
23301;DHT22;11819;51.394;12.340;2023-02-28T11:00:55;4.20;61.00
23301;DHT22;11819;51.394;12.340;2023-02-28T11:03:27;4.20;61.10
23301;DHT22;11819;51.394;12.340;2023-02-28T11:05:54;4.20;60.70
23301;DHT22;11819;51.394;12.340;2023-02-28T11:08:20;4.30;61.40
23301;DHT22;11819;51.394;12.340;2023-02-28T11:10:47;4.30;61.40
23301;DHT22;11819;51.394;12.340;2023-02-28T11:13:20;4.30;61.50
23301;DHT22;11819;51.394;12.340;2023-02-28T11:15:55;4.40;61.40
23301;DHT22;11819;51.394;12.340;2023-02-28T11:18:30;4.40;61.50
23301;DHT22;11819;51.394;12.340;2023-02-28T11:20:59;4.50;61.70
23301;DHT22;11819;51.394;12.340;2023-02-28T11:23:30;4.50;61.40
23301;DHT22;11819;51.394;12.340;2023-02-28T11:26:01;4.60;61.50
23301;DHT22;11819;51.394;12.340;2023-02-28T11:28:36;4.60;61.60
23301;DHT22;11819;51.394;12.340;2023-02-28T11:33:45;4.70;60.90
23301;DHT22;11819;51.394;12.340;2023-02-28T11:36:24;4.70;60.60
23301;DHT22;11819;51.394;12.340;2023-02-28T11:38:51;4.70;60.60
23301;DHT22;11819;51.394;12.340;2023-02-28T11:41:45;4.80;61.10
23301;DHT22;11819;51.394;12.340;2023-02-28T11:44:19;4.80;61.30
23301;DHT22;11819;51.394;12.340;2023-02-28T11:46:48;4.90;61.00
23301;DHT22;11819;51.394;12.340;2023-02-28T11:49:47;4.80;59.90
23301;DHT22;11819;51.394;12.340;2023-02-28T11:52:36;4.80;59.90
23301;DHT22;11819;51.394;12.340;2023-02-28T11:55:16;4.90;60.40
23301;DHT22;11819;51.394;12.340;2023-02-28T11:58:01;4.90;60.60
23301;DHT22;11819;51.394;12.340;2023-02-28T12:01:14;5.00;60.90
23301;DHT22;11819;51.394;12.340;2023-02-28T12:06:15;5.20;61.30
23301;DHT22;11819;51.394;12.340;2023-02-28T12:11:51;5.30;61.30
23301;DHT22;11819;51.394;12.340;2023-02-28T12:23:26;5.40;60.60
23301;DHT22;11819;51.394;12.340;2023-02-28T12:26:13;5.40;60.10
23301;DHT22;11819;51.394;12.340;2023-02-28T12:28:44;5.40;59.80
23301;DHT22;11819;51.394;12.340;2023-02-28T12:31:24;5.40;59.90
23301;DHT22;11819;51.394;12.340;2023-02-28T12:34:00;5.40;59.90
23301;DHT22;11819;51.394;12.340;2023-02-28T12:36:27;5.50;60.30
23301;DHT22;11819;51.394;12.340;2023-02-28T12:39:01;5.60;60.50
23301;DHT22;11819;51.394;12.340;2023-02-28T12:44:08;5.60;60.50
23301;DHT22;11819;51.394;12.340;2023-02-28T12:46:47;5.70;60.50
23301;DHT22;11819;51.394;12.340;2023-02-28T12:49:45;5.70;60.40
23301;DHT22;11819;51.394;12.340;2023-02-28T12:52:13;5.80;60.20
23301;DHT22;11819;51.394;12.340;2023-02-28T12:54:52;5.80;59.70
23301;DHT22;11819;51.394;12.340;2023-02-28T12:57:34;5.80;59.70
23301;DHT22;11819;51.394;12.340;2023-02-28T13:00:11;5.90;59.80
23301;DHT22;11819;51.394;12.340;2023-02-28T13:11:29;6.00;59.90
23301;DHT22;11819;51.394;12.340;2023-02-28T13:14:00;6.10;60.60
23301;DHT22;11819;51.394;12.340;2023-02-28T13:16:27;6.20;59.60
23301;DHT22;11819;51.394;12.340;2023-02-28T13:19:08;6.30;59.50
23301;DHT22;11819;51.394;12.340;2023-02-28T13:21:42;6.50;59.30
23301;DHT22;11819;51.394;12.340;2023-02-28T13:24:09;7.10;59.00
23301;DHT22;11819;51.394;12.340;2023-02-28T13:29:30;8.30;56.90
23301;DHT22;11819;51.394;12.340;2023-02-28T13:40:06;10.40;52.90
23301;DHT22;11819;51.394;12.340;2023-02-28T13:53:01;11.60;49.10
23301;DHT22;11819;51.394;12.340;2023-02-28T13:58:33;12.10;48.20
23301;DHT22;11819;51.394;12.340;2023-02-28T14:01:42;12.30;48.00
23301;DHT22;11819;51.394;12.340;2023-02-28T14:06:59;12.70;47.10
23301;DHT22;11819;51.394;12.340;2023-02-28T14:11:55;12.90;45.80
23301;DHT22;11819;51.394;12.340;2023-02-28T14:17:15;13.30;45.50
23301;DHT22;11819;51.394;12.340;2023-02-28T14:19:45;13.40;45.30
23301;DHT22;11819;51.394;12.340;2023-02-28T14:22:47;13.50;45.00
23301;DHT22;11819;51.394;12.340;2023-02-28T14:28:47;13.80;43.70
23301;DHT22;11819;51.394;12.340;2023-02-28T14:31:24;13.80;44.20
23301;DHT22;11819;51.394;12.340;2023-02-28T14:37:19;14.00;43.60
23301;DHT22;11819;51.394;12.340;2023-02-28T14:39:46;14.10;44.00
23301;DHT22;11819;51.394;12.340;2023-02-28T14:44:57;14.10;42.70
23301;DHT22;11819;51.394;12.340;2023-02-28T14:47:28;13.90;42.60
23301;DHT22;11819;51.394;12.340;2023-02-28T14:49:57;13.20;42.90
23301;DHT22;11819;51.394;12.340;2023-02-28T14:52:28;12.30;43.90
23301;DHT22;11819;51.394;12.340;2023-02-28T14:55:04;11.40;44.90
23301;DHT22;11819;51.394;12.340;2023-02-28T14:57:38;10.70;46.50
23301;DHT22;11819;51.394;12.340;2023-02-28T15:00:15;10.30;47.50
23301;DHT22;11819;51.394;12.340;2023-02-28T15:02:41;9.80;48.50
23301;DHT22;11819;51.394;12.340;2023-02-28T15:07:44;9.30;49.90
23301;DHT22;11819;51.394;12.340;2023-02-28T15:10:20;9.10;50.50
23301;DHT22;11819;51.394;12.340;2023-02-28T15:13:01;8.90;51.00
23301;DHT22;11819;51.394;12.340;2023-02-28T15:15:44;8.70;51.60
23301;DHT22;11819;51.394;12.340;2023-02-28T15:18:32;8.60;52.00
23301;DHT22;11819;51.394;12.340;2023-02-28T15:21:15;8.40;52.20
23301;DHT22;11819;51.394;12.340;2023-02-28T15:23:45;8.40;52.70
23301;DHT22;11819;51.394;12.340;2023-02-28T15:26:19;8.30;53.00
23301;DHT22;11819;51.394;12.340;2023-02-28T15:28:53;8.20;53.40
23301;DHT22;11819;51.394;12.340;2023-02-28T15:31:35;8.10;53.50
23301;DHT22;11819;51.394;12.340;2023-02-28T15:34:06;8.00;53.70
23301;DHT22;11819;51.394;12.340;2023-02-28T15:36:34;7.90;53.60
23301;DHT22;11819;51.394;12.340;2023-02-28T15:39:16;7.90;53.60
23301;DHT22;11819;51.394;12.340;2023-02-28T15:41:43;7.80;53.80
23301;DHT22;11819;51.394;12.340;2023-02-28T15:44:24;7.80;54.20
23301;DHT22;11819;51.394;12.340;2023-02-28T15:47:02;7.70;54.50
23301;DHT22;11819;51.394;12.340;2023-02-28T15:49:29;7.60;54.70
23301;DHT22;11819;51.394;12.340;2023-02-28T15:51:59;7.50;54.70
23301;DHT22;11819;51.394;12.340;2023-02-28T15:54:29;7.40;55.20
23301;DHT22;11819;51.394;12.340;2023-02-28T15:56:57;7.40;55.70
23301;DHT22;11819;51.394;12.340;2023-02-28T15:59:49;7.30;55.90
23301;DHT22;11819;51.394;12.340;2023-02-28T16:02:21;7.20;55.90
23301;DHT22;11819;51.394;12.340;2023-02-28T16:07:42;7.10;56.00
23301;DHT22;11819;51.394;12.340;2023-02-28T16:10:11;7.10;56.30
23301;DHT22;11819;51.394;12.340;2023-02-28T16:12:38;7.00;56.70
23301;DHT22;11819;51.394;12.340;2023-02-28T16:15:28;6.90;57.00
23301;DHT22;11819;51.394;12.340;2023-02-28T16:17:56;6.90;57.60
23301;DHT22;11819;51.394;12.340;2023-02-28T16:20:28;6.80;57.80
23301;DHT22;11819;51.394;12.340;2023-02-28T16:22:54;6.70;57.80
23301;DHT22;11819;51.394;12.340;2023-02-28T16:25:23;6.70;57.80
23301;DHT22;11819;51.394;12.340;2023-02-28T16:27:53;6.60;57.70
23301;DHT22;11819;51.394;12.340;2023-02-28T16:30:22;6.60;57.80
23301;DHT22;11819;51.394;12.340;2023-02-28T16:32:49;6.60;58.00
23301;DHT22;11819;51.394;12.340;2023-02-28T16:35:16;6.50;58.00
23301;DHT22;11819;51.394;12.340;2023-02-28T16:37:43;6.40;58.00
23301;DHT22;11819;51.394;12.340;2023-02-28T16:40:25;6.40;58.20
23301;DHT22;11819;51.394;12.340;2023-02-28T16:42:56;6.30;58.40
23301;DHT22;11819;51.394;12.340;2023-02-28T16:45:27;6.20;58.70
23301;DHT22;11819;51.394;12.340;2023-02-28T16:47:53;6.10;59.00
23301;DHT22;11819;51.394;12.340;2023-02-28T16:50:29;6.00;59.60
23301;DHT22;11819;51.394;12.340;2023-02-28T16:52:55;6.00;60.00
23301;DHT22;11819;51.394;12.340;2023-02-28T16:55:22;5.90;60.30
23301;DHT22;11819;51.394;12.340;2023-02-28T16:57:51;5.80;60.40
23301;DHT22;11819;51.394;12.340;2023-02-28T17:00:18;5.70;60.90
23301;DHT22;11819;51.394;12.340;2023-02-28T17:02:43;5.70;61.50
23301;DHT22;11819;51.394;12.340;2023-02-28T17:05:11;5.60;61.90
23301;DHT22;11819;51.394;12.340;2023-02-28T17:07:39;5.50;62.10
23301;DHT22;11819;51.394;12.340;2023-02-28T17:10:22;5.40;62.40
23301;DHT22;11819;51.394;12.340;2023-02-28T17:12:49;5.40;63.00
23301;DHT22;11819;51.394;12.340;2023-02-28T17:15:16;5.30;63.50
23301;DHT22;11819;51.394;12.340;2023-02-28T17:17:43;5.20;64.00
23301;DHT22;11819;51.394;12.340;2023-02-28T17:20:15;5.20;64.00
23301;DHT22;11819;51.394;12.340;2023-02-28T17:22:41;5.10;64.50
23301;DHT22;11819;51.394;12.340;2023-02-28T17:25:09;5.10;64.80
23301;DHT22;11819;51.394;12.340;2023-02-28T17:27:36;5.00;64.80
23301;DHT22;11819;51.394;12.340;2023-02-28T17:30:23;5.00;65.40
23301;DHT22;11819;51.394;12.340;2023-02-28T17:32:48;4.90;66.00
23301;DHT22;11819;51.394;12.340;2023-02-28T17:35:15;4.80;66.70
23301;DHT22;11819;51.394;12.340;2023-02-28T17:37:42;4.70;67.30
23301;DHT22;11819;51.394;12.340;2023-02-28T17:40:26;4.60;67.50
23301;DHT22;11819;51.394;12.340;2023-02-28T17:42:52;4.50;67.70
23301;DHT22;11819;51.394;12.340;2023-02-28T17:45:17;4.40;67.90
23301;DHT22;11819;51.394;12.340;2023-02-28T17:47:47;4.40;68.30
23301;DHT22;11819;51.394;12.340;2023-02-28T17:50:18;4.30;68.30
23301;DHT22;11819;51.394;12.340;2023-02-28T17:52:44;4.30;68.10
23301;DHT22;11819;51.394;12.340;2023-02-28T17:55:10;4.30;67.90